Time;durP1;ratioP1;P1;durP2;ratioP2;P2;SDS_P1;SDS_P2;PMS_P1;PMS_P2;Temp;Humidity;BMP_temperature;BMP_pressure;BME280_temperature;BME280_humidity;BME280_pressure;Samples;Min_cycle;Max_cycle;Signal;HPM_P1;HPM_P2
2023/05/23 00:01:06;;;;;;;10.68;3.97;;;;;;;14.33;70.13;102079.50;7360079;19;20076;-68
2023/05/23 00:03:34;;;;;;;11.32;3.75;;;;;;;14.35;69.77;102079.34;7362405;19;20030;-67
2023/05/23 00:06:06;;;;;;;11.52;3.75;;;;;;;14.36;70.00;102083.69;7359820;19;20025;-68
2023/05/23 00:08:40;;;;;;;13.07;4.07;;;;;;;14.31;70.13;102080.63;7359225;19;20435;-71
2023/05/23 00:11:07;;;;;;;11.55;3.88;;;;;;;14.29;69.96;102082.56;7358121;19;20006;-69
2023/05/23 00:13:34;;;;;;;9.68;3.47;;;;;;;14.27;70.09;102084.56;7363204;19;20559;-66
2023/05/23 00:16:02;;;;;;;11.95;3.53;;;;;;;14.22;70.22;102078.88;7359625;19;20022;-68
2023/05/23 00:18:29;;;;;;;13.68;4.43;;;;;;;14.11;70.34;102086.00;7361869;19;20081;-69
2023/05/23 00:20:57;;;;;;;8.63;3.30;;;;;;;14.09;70.39;102080.00;7362247;19;20093;-67
2023/05/23 00:23:25;;;;;;;10.70;3.50;;;;;;;14.04;70.42;102066.38;7365314;19;20093;-68
2023/05/23 00:25:52;;;;;;;12.05;4.13;;;;;;;14.06;71.78;102075.03;7359608;19;20026;-69
2023/05/23 00:28:21;;;;;;;11.88;4.30;;;;;;;14.09;70.95;102063.28;7360200;19;20032;-68
2023/05/23 00:30:48;;;;;;;10.02;3.30;;;;;;;14.09;70.70;102069.41;7357294;19;20898;-67
2023/05/23 00:33:16;;;;;;;10.57;3.78;;;;;;;14.09;70.28;102072.06;7361762;19;20514;-68
2023/05/23 00:35:43;;;;;;;8.48;3.72;;;;;;;14.08;71.18;102074.84;7358984;19;20026;-69
2023/05/23 00:38:11;;;;;;;6.60;2.85;;;;;;;14.09;70.81;102060.66;7359924;19;20491;-67
2023/05/23 00:40:38;;;;;;;10.52;3.20;;;;;;;14.10;70.82;102062.31;7358958;19;20049;-68
2023/05/23 00:43:07;;;;;;;8.70;3.25;;;;;;;14.07;71.08;102063.44;7362719;19;20354;-67
2023/05/23 00:45:34;;;;;;;10.80;3.28;;;;;;;14.06;71.87;102067.06;7357991;19;20019;-67
2023/05/23 00:48:03;;;;;;;7.60;3.13;;;;;;;14.05;72.08;102064.56;7355383;19;20010;-68
2023/05/23 00:50:30;;;;;;;8.02;3.70;;;;;;;14.03;73.11;102066.50;7354563;19;20010;-67
2023/05/23 00:53:00;;;;;;;12.68;3.78;;;;;;;13.98;73.40;102064.31;7362521;19;20109;-67
2023/05/23 00:55:28;;;;;;;9.63;3.10;;;;;;;13.97;73.14;102056.50;7359448;19;20592;-68
2023/05/23 00:57:56;;;;;;;7.90;3.30;;;;;;;14.01;72.99;102052.59;7356472;19;20649;-66
2023/05/23 01:00:25;;;;;;;11.30;4.03;;;;;;;13.99;72.79;102055.38;7356277;19;20102;-67
2023/05/23 01:02:53;;;;;;;8.00;3.30;;;;;;;13.95;72.69;102047.88;7361899;19;20811;-66
2023/05/23 01:05:23;;;;;;;8.02;3.45;;;;;;;13.94;73.07;102052.34;7359238;19;20025;-68
2023/05/23 01:07:51;;;;;;;9.75;3.30;;;;;;;13.92;73.60;102051.63;7360022;19;20497;-67
2023/05/23 01:10:24;;;;;;;8.38;3.15;;;;;;;13.90;73.85;102050.13;7359152;19;20134;-67
2023/05/23 01:12:58;;;;;;;13.23;3.33;;;;;;;13.86;74.13;102049.59;7362243;19;20093;-68
2023/05/23 01:15:35;;;;;;;9.70;2.95;;;;;;;13.82;74.66;102057.94;7360399;19;20121;-70
2023/05/23 01:18:08;;;;;;;9.60;3.15;;;;;;;13.81;74.58;102070.34;7356604;19;20018;-67
2023/05/23 01:20:39;;;;;;;5.38;2.78;;;;;;;13.79;74.91;102058.22;7359708;19;20019;-67
2023/05/23 01:23:14;;;;;;;7.35;3.17;;;;;;;13.76;75.41;102062.00;7360765;19;20089;-67
2023/05/23 01:25:49;;;;;;;8.85;3.30;;;;;;;13.75;75.65;102070.09;7362407;19;20090;-67
2023/05/23 01:28:20;;;;;;;10.02;3.33;;;;;;;13.69;75.97;102067.03;7354416;19;21046;-69
2023/05/23 01:30:51;;;;;;;11.35;3.38;;;;;;;13.63;76.98;102064.13;7356327;19;20068;-66
2023/05/23 01:33:19;;;;;;;9.23;3.15;;;;;;;13.57;77.33;102069.97;7356767;19;20692;-67
2023/05/23 01:35:47;;;;;;;9.13;2.60;;;;;;;13.56;77.80;102073.59;7356827;19;20469;-69
2023/05/23 01:38:15;;;;;;;6.13;2.60;;;;;;;13.49;78.05;102068.03;7359683;19;20037;-67
2023/05/23 01:40:42;;;;;;;6.55;2.50;;;;;;;13.49;78.92;102069.84;7358896;19;20074;-68
2023/05/23 01:43:09;;;;;;;6.45;2.72;;;;;;;13.48;79.20;102069.00;7360220;19;20029;-66
2023/05/23 01:45:37;;;;;;;7.97;2.53;;;;;;;13.44;79.54;102072.91;7358691;19;20014;-66
2023/05/23 01:48:05;;;;;;;12.05;3.05;;;;;;;13.45;79.71;102071.09;7356886;19;20137;-68
2023/05/23 01:50:33;;;;;;;7.90;2.80;;;;;;;13.49;80.87;102072.50;7353630;19;20061;-68
2023/05/23 01:53:00;;;;;;;8.68;2.85;;;;;;;13.50;80.94;102080.28;7358176;19;20015;-68
2023/05/23 01:55:28;;;;;;;10.07;2.60;;;;;;;13.46;81.12;102075.44;7358797;19;20014;-68
2023/05/23 01:57:56;;;;;;;9.82;2.85;;;;;;;13.40;81.87;102084.75;7358003;19;20018;-68
2023/05/23 02:00:23;;;;;;;12.23;2.83;;;;;;;13.41;82.15;102083.75;7355872;19;20014;-67
2023/05/23 02:02:51;;;;;;;7.68;2.08;;;;;;;13.39;82.42;102082.25;7357441;19;20614;-68
2023/05/23 02:05:18;;;;;;;7.07;2.55;;;;;;;13.39;82.50;102080.44;7357722;19;20022;-68
2023/05/23 02:07:45;;;;;;;9.18;3.08;;;;;;;13.38;82.49;102089.34;7355686;19;20018;-68
2023/05/23 02:10:13;;;;;;;6.60;1.98;;;;;;;13.39;83.19;102092.81;7358187;19;20629;-67
2023/05/23 02:12:40;;;;;;;6.93;2.60;;;;;;;13.35;83.33;102096.72;7353600;19;20026;-68
2023/05/23 02:15:08;;;;;;;10.48;2.47;;;;;;;13.28;83.73;102094.63;7357308;19;20014;-69
2023/05/23 02:17:35;;;;;;;5.68;2.45;;;;;;;13.28;83.92;102096.44;7353585;19;20671;-67
2023/05/23 02:20:03;;;;;;;11.35;2.50;;;;;;;13.23;84.06;102099.50;7358884;19;20019;-68
2023/05/23 02:22:30;;;;;;;8.48;3.03;;;;;;;13.22;84.74;102100.47;7354639;19;20584;-66
2023/05/23 02:24:57;;;;;;;7.90;2.83;;;;;;;13.19;84.73;102098.09;7357379;19;20097;-68
2023/05/23 02:27:25;;;;;;;8.02;2.83;;;;;;;13.20;84.64;102110.34;7355751;19;20311;-68
2023/05/23 02:29:52;;;;;;;8.30;2.47;;;;;;;13.20;84.81;102107.72;7357241;19;20939;-68
2023/05/23 02:32:19;;;;;;;7.93;2.60;;;;;;;13.16;85.30;102108.94;7354497;19;20019;-69
2023/05/23 02:34:49;;;;;;;9.52;2.60;;;;;;;13.17;85.14;102105.31;7360329;19;20050;-68
2023/05/23 02:37:16;;;;;;;7.65;3.03;;;;;;;13.15;85.13;102103.81;7356121;19;21998;-68
2023/05/23 02:39:43;;;;;;;5.65;2.80;;;;;;;13.19;85.15;102102.56;7353249;19;20006;-68
2023/05/23 02:42:10;;;;;;;8.20;2.45;;;;;;;13.18;85.30;102106.16;7358217;19;20010;-67
2023/05/23 02:44:38;;;;;;;6.20;2.50;;;;;;;13.18;85.47;102107.00;7356312;19;20025;-67
2023/05/23 02:47:05;;;;;;;8.90;3.00;;;;;;;13.22;85.49;102118.97;7355819;19;20010;-67
2023/05/23 02:49:32;;;;;;;9.57;2.47;;;;;;;13.25;85.49;102118.69;7352917;19;20495;-68
2023/05/23 02:52:00;;;;;;;9.95;2.50;;;;;;;13.27;85.05;102114.09;7355559;19;20094;-67
2023/05/23 02:54:27;;;;;;;4.40;1.98;;;;;;;13.31;84.95;102114.66;7356122;19;20082;-68
2023/05/23 02:56:55;;;;;;;9.40;2.75;;;;;;;13.32;85.11;102113.69;7356607;19;20014;-67
2023/05/23 02:59:22;;;;;;;6.75;2.53;;;;;;;13.35;85.72;102117.88;7354188;19;20011;-68
2023/05/23 03:01:50;;;;;;;9.75;2.78;;;;;;;13.40;84.59;102120.94;7354573;19;20082;-70
2023/05/23 03:04:17;;;;;;;9.60;2.42;;;;;;;13.37;84.74;102115.91;7355342;19;20018;-68
2023/05/23 03:06:44;;;;;;;7.70;2.40;;;;;;;13.34;84.76;102118.84;7353140;19;20165;-68
2023/05/23 03:09:11;;;;;;;6.90;3.00;;;;;;;13.34;84.93;102119.66;7357439;19;20109;-67
2023/05/23 03:11:39;;;;;;;7.85;2.55;;;;;;;13.28;85.17;102121.06;7354254;19;20026;-68
2023/05/23 03:14:06;;;;;;;9.75;2.58;;;;;;;13.25;85.47;102124.00;7358742;19;20535;-70
2023/05/23 03:16:33;;;;;;;5.65;2.65;;;;;;;13.23;85.61;102114.50;7355079;19;20909;-67
2023/05/23 03:19:00;;;;;;;11.27;2.88;;;;;;;13.21;85.75;102122.56;7355105;19;20671;-67
2023/05/23 03:21:28;;;;;;;5.22;2.50;;;;;;;13.19;85.82;102124.53;7357040;19;20019;-67
2023/05/23 03:23:55;;;;;;;9.10;2.97;;;;;;;13.21;85.56;102116.44;7361673;19;20089;-67
2023/05/23 03:26:23;;;;;;;8.57;2.63;;;;;;;13.20;85.77;102115.63;7360321;19;20086;-66
2023/05/23 03:28:50;;;;;;;6.18;2.60;;;;;;;13.19;85.56;102115.78;7363612;19;20048;-69
2023/05/23 03:31:17;;;;;;;9.27;2.63;;;;;;;13.17;85.92;102113.25;7360786;19;20014;-67
2023/05/23 03:33:44;;;;;;;12.30;3.25;;;;;;;13.18;86.39;102127.31;7365771;19;20015;-67
2023/05/23 03:36:11;;;;;;;6.55;2.35;;;;;;;13.18;85.76;102124.66;7360667;19;20018;-67
2023/05/23 03:38:39;;;;;;;8.20;2.97;;;;;;;13.14;85.58;102124.13;7361406;19;20022;-68
2023/05/23 03:41:06;;;;;;;7.60;2.35;;;;;;;13.12;85.87;102125.22;7368161;19;20142;-68
2023/05/23 03:43:33;;;;;;;14.52;3.00;;;;;;;13.13;85.88;102119.78;7362077;19;20030;-67
2023/05/23 03:46:00;;;;;;;7.68;3.05;;;;;;;13.10;86.05;102121.84;7360605;19;20629;-69
2023/05/23 03:48:29;;;;;;;8.68;2.60;;;;;;;13.12;86.40;102120.75;7359059;19;20021;-67
2023/05/23 03:50:56;;;;;;;5.10;2.25;;;;;;;13.10;85.90;102114.75;7356550;19;20017;-67
2023/05/23 03:53:23;;;;;;;10.38;2.85;;;;;;;13.10;86.05;102121.84;7359569;19;20021;-67
2023/05/23 03:55:52;;;;;;;8.63;2.58;;;;;;;13.14;85.80;102118.00;7362131;19;20075;-69
2023/05/23 03:58:20;;;;;;;7.90;2.67;;;;;;;13.14;86.13;102120.63;7357254;19;20025;-68
2023/05/23 04:00:47;;;;;;;10.38;2.72;;;;;;;13.13;85.51;102124.25;7361204;19;20029;-67
2023/05/23 04:03:16;;;;;;;7.72;2.65;;;;;;;13.11;85.76;102123.50;7363949;19;20903;-67
2023/05/23 04:05:43;;;;;;;7.82;2.38;;;;;;;13.11;85.67;102121.72;7360140;19;20018;-69
2023/05/23 04:08:11;;;;;;;9.35;2.25;;;;;;;13.11;86.06;102121.72;7362860;19;20037;-66
2023/05/23 04:10:39;;;;;;;9.75;2.42;;;;;;;13.07;85.71;102119.47;7363066;19;20025;-68
2023/05/23 04:13:06;;;;;;;8.18;1.88;;;;;;;13.01;85.88;102120.84;7361910;19;20012;-67
2023/05/23 04:15:34;;;;;;;6.85;2.08;;;;;;;13.02;86.00;102122.53;7362714;19;20521;-68
2023/05/23 04:18:02;;;;;;;5.65;1.92;;;;;;;13.04;85.84;102130.31;7358352;19;20854;-68
2023/05/23 04:20:29;;;;;;;9.75;1.83;;;;;;;13.01;86.25;102134.06;7360688;19;20054;-69
2023/05/23 04:22:57;;;;;;;6.07;1.90;;;;;;;12.98;85.99;102128.22;7360545;19;20094;-68
2023/05/23 04:25:25;;;;;;;5.55;1.30;;;;;;;12.98;86.15;102129.06;7363534;19;20022;-68
2023/05/23 04:27:53;;;;;;;9.30;1.63;;;;;;;13.02;85.62;102132.25;7356463;19;20030;-68
2023/05/23 04:30:21;;;;;;;7.18;1.48;;;;;;;13.05;85.62;102138.13;7359314;19;20716;-69
2023/05/23 04:32:48;;;;;;;12.13;2.60;;;;;;;13.08;85.53;102137.00;7359000;19;20548;-69
2023/05/23 04:35:15;;;;;;;7.13;1.63;;;;;;;13.09;85.26;102136.03;7360990;19;20023;-67
2023/05/23 04:37:44;;;;;;;8.23;1.75;;;;;;;13.10;84.84;102143.84;7362035;19;20018;-68
2023/05/23 04:40:12;;;;;;;10.63;2.13;;;;;;;13.12;84.65;102149.81;7360462;19;20089;-69
2023/05/23 04:42:41;;;;;;;7.07;1.60;;;;;;;13.14;84.72;102147.91;7363522;19;20040;-68
2023/05/23 04:45:10;;;;;;;5.93;1.50;;;;;;;13.16;84.23;102153.88;7359234;19;20014;-68
2023/05/23 04:47:37;;;;;;;10.55;1.70;;;;;;;13.22;83.37;102155.97;7355973;19;20010;-67
2023/05/23 04:50:05;;;;;;;6.07;1.52;;;;;;;13.20;83.52;102159.72;7360137;19;20548;-70
2023/05/23 04:52:32;;;;;;;6.97;1.55;;;;;;;13.20;83.22;102163.22;7355113;19;20018;-67
2023/05/23 04:55:00;;;;;;;8.25;1.50;;;;;;;13.17;82.63;102168.75;7356797;19;20035;-66
2023/05/23 04:57:27;;;;;;;4.75;1.25;;;;;;;13.13;82.95;102177.94;7362278;19;20014;-68
2023/05/23 04:59:56;;;;;;;6.25;1.55;;;;;;;13.10;82.63;102174.72;7358315;19;20014;-67
2023/05/23 05:02:23;;;;;;;6.28;1.67;;;;;;;13.11;82.51;102173.72;7361258;19;20110;-68
2023/05/23 05:04:50;;;;;;;7.90;1.75;;;;;;;13.07;82.41;102173.16;7357930;19;20021;-67
2023/05/23 05:07:17;;;;;;;6.53;1.40;;;;;;;13.08;82.50;102188.03;7359494;19;20433;-67
2023/05/23 05:09:45;;;;;;;7.60;1.65;;;;;;;13.10;82.46;102186.13;7355081;19;20011;-67
2023/05/23 05:12:12;;;;;;;6.43;2.03;;;;;;;13.11;82.30;102184.28;7358399;19;20017;-68
2023/05/23 05:14:39;;;;;;;8.32;1.63;;;;;;;13.18;82.24;102188.09;7355931;19;20081;-68
2023/05/23 05:17:07;;;;;;;5.05;2.15;;;;;;;13.15;82.06;102183.09;7357502;19;20019;-67
2023/05/23 05:19:34;;;;;;;9.65;1.67;;;;;;;13.16;82.02;102179.44;7357982;19;20010;-68
2023/05/23 05:22:02;;;;;;;6.80;1.88;;;;;;;13.15;81.70;102185.72;7360018;19;20434;-68
2023/05/23 05:24:29;;;;;;;7.15;1.48;;;;;;;13.03;81.95;102189.41;7358855;19;20022;-68
2023/05/23 05:26:56;;;;;;;10.55;1.60;;;;;;;13.00;82.25;102192.34;7356369;19;20621;-69
2023/05/23 05:29:24;;;;;;;7.68;1.67;;;;;;;12.97;82.67;102185.50;7355499;19;20044;-69
2023/05/23 05:31:52;;;;;;;6.55;1.75;;;;;;;13.01;82.12;102202.75;7357388;19;20014;-68
2023/05/23 05:34:19;;;;;;;8.48;1.40;;;;;;;13.05;82.78;102198.91;7358799;19;21595;-68
2023/05/23 05:36:47;;;;;;;8.27;1.52;;;;;;;12.94;82.31;102201.63;7358272;19;20013;-67
2023/05/23 05:39:14;;;;;;;4.68;1.02;;;;;;;12.93;82.60;102197.31;7353698;19;20021;-68
2023/05/23 05:41:41;;;;;;;9.05;1.42;;;;;;;12.97;82.74;102189.94;7359828;19;20011;-68
2023/05/23 05:44:08;;;;;;;8.30;1.20;;;;;;;13.00;82.76;102190.53;7358253;19;20015;-68
2023/05/23 05:46:36;;;;;;;5.18;0.93;;;;;;;13.02;82.47;102201.78;7354705;19;20010;-67
2023/05/23 05:49:03;;;;;;;7.60;1.35;;;;;;;13.05;82.29;102196.25;7352788;19;20029;-68
2023/05/23 05:51:31;;;;;;;6.63;1.10;;;;;;;13.06;82.45;102197.91;7355660;19;20014;-68
2023/05/23 05:53:58;;;;;;;11.57;1.02;;;;;;;13.14;82.57;102194.63;7354842;19;20475;-69
2023/05/23 05:56:26;;;;;;;9.20;1.58;;;;;;;13.20;81.97;102192.28;7357768;19;20015;-67
2023/05/23 05:58:54;;;;;;;6.28;1.20;;;;;;;13.21;82.01;102199.22;7355483;19;20048;-68
2023/05/23 06:01:22;;;;;;;10.70;1.60;;;;;;;13.21;81.69;102196.56;7354669;19;20035;-68
2023/05/23 06:03:49;;;;;;;10.65;2.22;;;;;;;13.24;82.33;102200.78;7355190;19;20018;-69
2023/05/23 06:06:17;;;;;;;13.38;1.50;;;;;;;13.31;83.15;102207.16;7355558;19;20026;-70
2023/05/23 06:08:44;;;;;;;7.45;1.45;;;;;;;13.48;81.07;102200.38;7357938;19;20089;-68
2023/05/23 06:11:11;;;;;;;6.50;1.17;;;;;;;13.80;79.75;102208.06;7353710;19;20018;-68
2023/05/23 06:13:39;;;;;;;8.50;1.42;;;;;;;14.43;76.60;102210.09;7356424;19;20026;-69
2023/05/23 06:16:06;;;;;;;9.98;1.30;;;;;;;15.11;73.87;102208.00;7351877;19;20198;-69
2023/05/23 06:18:34;;;;;;;12.07;2.58;;;;;;;15.75;71.34;102213.16;7356328;19;20018;-70
2023/05/23 06:21:02;;;;;;;10.30;1.20;;;;;;;16.27;69.84;102215.91;7355183;19;20014;-69
2023/05/23 06:23:29;;;;;;;7.30;1.23;;;;;;;16.69;67.92;102229.31;7356083;19;20093;-68
2023/05/23 06:25:58;;;;;;;7.90;0.98;;;;;;;16.57;66.84;102225.22;7354949;19;20037;-69
2023/05/23 06:28:26;;;;;;;11.80;1.10;;;;;;;16.04;67.79;102212.91;7353607;19;20018;-70
2023/05/23 06:30:53;;;;;;;7.88;0.80;;;;;;;15.68;69.20;102221.91;7350585;19;20395;-68
2023/05/23 06:33:20;;;;;;;4.85;0.80;;;;;;;15.27;70.32;102220.59;7356251;19;20007;-69
2023/05/23 06:35:48;;;;;;;4.28;0.90;;;;;;;15.40;70.12;102219.25;7354282;19;21670;-69
2023/05/23 06:38:15;;;;;;;8.30;1.25;;;;;;;15.50;70.05;102208.56;7353688;19;20013;-69
2023/05/23 06:40:43;;;;;;;7.13;1.00;;;;;;;15.46;69.24;102216.97;7352342;19;20030;-69
2023/05/23 06:43:11;;;;;;;8.90;0.90;;;;;;;15.29;70.04;102214.16;7355480;19;20018;-69
2023/05/23 06:45:38;;;;;;;10.18;1.10;;;;;;;15.16;69.40;102213.69;7353695;19;20037;-68
2023/05/23 06:48:06;;;;;;;7.00;0.80;;;;;;;14.90;69.45;102213.53;7350653;19;20664;-67
2023/05/23 06:50:33;;;;;;;6.47;0.80;;;;;;;14.75;69.99;102230.06;7352177;19;20381;-68
2023/05/23 06:53:00;;;;;;;11.07;0.90;;;;;;;14.76;70.15;102215.84;7348769;19;20021;-69
2023/05/23 06:55:27;;;;;;;7.07;1.48;;;;;;;14.74;69.55;102210.69;7350246;19;20141;-69
2023/05/23 06:57:55;;;;;;;9.25;1.35;;;;;;;14.81;69.34;102210.94;7357904;19;20471;-71
2023/05/23 07:00:22;;;;;;;7.38;0.95;;;;;;;14.81;69.31;102214.41;7365570;19;20031;-69
2023/05/23 07:02:50;;;;;;;8.10;0.88;;;;;;;14.79;68.92;102216.38;7371675;19;20033;-68
2023/05/23 07:05:18;;;;;;;5.70;0.80;;;;;;;14.73;68.37;102210.84;7367394;19;20010;-69
2023/05/23 07:07:45;;;;;;;4.20;0.90;;;;;;;14.71;69.16;102212.78;7372415;19;20031;-69
2023/05/23 07:10:13;;;;;;;8.48;0.80;;;;;;;14.69;69.03;102218.22;7373513;19;20018;-69
2023/05/23 07:12:40;;;;;;;10.88;1.02;;;;;;;14.72;69.43;102215.31;7371787;19;20043;-68
2023/05/23 07:15:10;;;;;;;10.32;1.40;;;;;;;14.75;70.00;102216.81;7371560;19;20483;-68
2023/05/23 07:17:38;;;;;;;5.93;0.80;;;;;;;14.80;68.77;102219.88;7368974;19;20018;-69
2023/05/23 07:20:07;;;;;;;4.95;1.10;;;;;;;14.86;68.37;102220.13;7374012;19;20015;-70
2023/05/23 07:22:34;;;;;;;9.07;1.40;;;;;;;15.01;67.08;102222.28;7362807;19;20705;-71
2023/05/23 07:25:02;;;;;;;7.18;0.90;;;;;;;15.09;66.17;102235.63;7367639;19;20716;-68
2023/05/23 07:27:29;;;;;;;8.30;1.27;;;;;;;15.15;66.87;102232.38;7365897;19;20041;-70
2023/05/23 07:29:57;;;;;;;6.70;1.08;;;;;;;15.25;66.04;102231.34;7366174;19;20022;-69
2023/05/23 07:32:24;;;;;;;8.13;1.10;;;;;;;15.28;65.32;102233.72;7366175;19;20048;-69
2023/05/23 07:34:52;;;;;;;4.25;0.60;;;;;;;15.23;65.36;102235.16;7367658;19;20014;-68
2023/05/23 07:37:20;;;;;;;4.65;1.08;;;;;;;15.17;65.92;102227.78;7366278;19;20126;-69
2023/05/23 07:39:47;;;;;;;7.70;0.80;;;;;;;15.10;64.99;102232.00;7367004;19;20015;-68
2023/05/23 07:42:15;;;;;;;5.50;1.17;;;;;;;15.06;65.00;102227.97;7367169;19;20042;-67
2023/05/23 07:44:42;;;;;;;5.97;1.10;;;;;;;15.13;64.53;102221.13;7369109;19;20542;-68
2023/05/23 07:47:10;;;;;;;10.57;0.80;;;;;;;15.16;63.90;102224.28;7367755;19;20335;-68
2023/05/23 07:49:37;;;;;;;4.13;0.88;;;;;;;15.22;63.29;102229.00;7366244;19;20006;-68
2023/05/23 07:52:05;;;;;;;5.47;0.98;;;;;;;15.33;63.88;102227.97;7365061;19;20010;-67
2023/05/23 07:54:33;;;;;;;11.40;1.20;;;;;;;15.39;62.51;102220.22;7363412;19;20043;-67
2023/05/23 07:57:00;;;;;;;6.75;0.82;;;;;;;15.45;62.25;102223.28;7363974;19;20025;-67
2023/05/23 07:59:32;;;;;;;4.88;0.60;;;;;;;15.53;62.42;102221.59;7364338;19;20018;-67
2023/05/23 08:02:00;;;;;;;9.65;0.95;;;;;;;15.58;62.43;102229.09;7364373;19;20034;-67
2023/05/23 08:04:28;;;;;;;8.82;1.30;;;;;;;15.63;62.38;102240.94;7367188;19;20021;-67
2023/05/23 08:06:56;;;;;;;7.18;0.60;;;;;;;15.71;62.00;102238.34;7364440;19;20099;-68
2023/05/23 08:09:31;;;;;;;7.63;1.20;;;;;;;15.77;60.80;102245.69;7355038;19;20590;-67
2023/05/23 08:11:59;;;;;;;6.32;0.80;;;;;;;15.72;60.77;102241.81;7359345;19;20018;-68
2023/05/23 08:14:26;;;;;;;6.40;1.00;;;;;;;15.65;60.52;102236.28;7359199;19;20641;-68
2023/05/23 08:17:14;;;;;;;4.53;0.70;;;;;;;15.51;60.67;102233.28;7357362;19;20055;-67
2023/05/23 08:19:42;;;;;;;8.10;0.90;;;;;;;15.49;61.61;102236.09;7359940;19;20006;-68
2023/05/23 08:22:10;;;;;;;7.88;0.90;;;;;;;15.50;60.61;102237.75;7361714;19;20078;-67
2023/05/23 08:24:37;;;;;;;5.43;0.60;;;;;;;15.38;59.35;102229.19;7363343;19;20098;-67
2023/05/23 08:27:06;;;;;;;5.65;0.95;;;;;;;15.35;60.05;102237.44;7358186;19;20059;-67
2023/05/23 08:29:34;;;;;;;6.15;0.68;;;;;;;15.22;61.18;102236.97;7357995;19;20459;-68
2023/05/23 08:32:02;;;;;;;4.05;0.60;;;;;;;15.29;62.38;102224.75;7359864;19;20030;-68
2023/05/23 08:34:30;;;;;;;5.65;0.70;;;;;;;15.20;60.90;102232.78;7360264;19;20018;-66
2023/05/23 08:36:57;;;;;;;6.45;0.73;;;;;;;15.20;60.61;102233.63;7356406;19;20018;-68
2023/05/23 08:39:25;;;;;;;4.47;0.70;;;;;;;15.22;61.08;102238.78;7360035;19;20015;-68
2023/05/23 08:41:52;;;;;;;3.83;0.70;;;;;;;15.35;59.66;102236.59;7358305;19;20019;-67
2023/05/23 08:44:20;;;;;;;6.63;0.88;;;;;;;15.40;59.27;102224.56;7362353;19;20022;-63
2023/05/23 08:46:52;;;;;;;6.07;0.60;;;;;;;15.41;56.98;102236.00;7356316;19;20105;-64
2023/05/23 08:49:22;;;;;;;8.23;0.70;;;;;;;15.35;57.02;102226.81;7357619;19;20011;-62
2023/05/23 08:51:53;;;;;;;6.28;0.80;;;;;;;15.34;57.68;102235.75;7361462;19;20131;-63
2023/05/23 08:54:21;;;;;;;4.50;0.70;;;;;;;15.37;58.23;102238.13;7362350;19;20074;-63
2023/05/23 08:56:48;;;;;;;6.18;0.75;;;;;;;15.41;58.49;102243.97;7356397;19;20157;-62
2023/05/23 08:59:16;;;;;;;5.68;0.70;;;;;;;15.44;58.25;102238.34;7357548;19;21071;-62
2023/05/23 09:01:46;;;;;;;5.50;0.70;;;;;;;15.48;58.28;102239.75;7358864;19;20201;-66
2023/05/23 09:04:14;;;;;;;7.50;0.93;;;;;;;15.52;58.27;102245.59;7360242;19;20746;-64
2023/05/23 09:06:41;;;;;;;3.10;0.60;;;;;;;15.53;57.12;102247.28;7355055;19;20498;-62
2023/05/23 09:09:08;;;;;;;5.03;0.50;;;;;;;15.45;57.01;102241.84;7358454;19;20656;-63
2023/05/23 09:11:36;;;;;;;3.90;0.80;;;;;;;15.44;58.55;102242.84;7358702;19;20019;-62
2023/05/23 09:14:06;;;;;;;5.43;0.60;;;;;;;15.29;57.66;102239.84;7360793;19;20048;-63
2023/05/23 09:16:34;;;;;;;6.90;0.73;;;;;;;15.27;57.34;102245.31;7355573;19;20015;-62
2023/05/23 09:19:10;;;;;;;7.38;0.93;;;;;;;15.18;57.81;102245.38;7357234;19;20051;-64
2023/05/23 09:21:44;;;;;;;7.88;0.70;;;;;;;15.24;58.46;102253.53;7359571;19;20323;-63
2023/05/23 09:24:11;;;;;;;6.65;1.25;;;;;;;15.28;58.49;102246.16;7360290;19;20051;-64
2023/05/23 09:26:39;;;;;;;3.45;0.70;;;;;;;15.36;58.04;102244.41;7354245;19;20010;-63
2023/05/23 09:29:06;;;;;;;6.25;0.63;;;;;;;15.43;57.91;102238.53;7353760;19;20656;-63
2023/05/23 09:31:34;;;;;;;7.80;0.55;;;;;;;15.54;58.20;102243.66;7358448;19;20555;-63
2023/05/23 09:34:03;;;;;;;2.80;0.60;;;;;;;15.57;57.17;102240.69;7358168;19;20919;-63
2023/05/23 09:36:33;;;;;;;8.73;0.65;;;;;;;15.60;57.03;102237.72;7358577;19;20020;-63
2023/05/23 09:39:04;;;;;;;11.15;1.02;;;;;;;15.69;57.27;102242.97;7353268;19;20010;-64
2023/05/23 09:41:34;;;;;;;7.38;0.60;;;;;;;15.83;56.72;102249.56;7358345;19;20408;-62
2023/05/23 09:44:07;;;;;;;8.38;0.57;;;;;;;15.98;56.36;102250.72;7304155;19;20011;-63
2023/05/23 09:46:37;;;;;;;3.60;0.50;;;;;;;16.14;55.37;102242.03;7351464;19;20020;-62
2023/05/23 09:49:10;;;;;;;3.97;0.63;;;;;;;16.22;55.50;102252.72;7352903;19;20043;-62
2023/05/23 09:51:38;;;;;;;3.72;1.20;;;;;;;16.34;55.38;102253.31;7356789;19;20708;-63
2023/05/23 09:54:06;;;;;;;5.80;0.60;;;;;;;16.37;54.01;102253.81;7358146;19;20022;-62
2023/05/23 09:56:40;;;;;;;3.63;0.57;;;;;;;16.34;54.36;102256.81;7356339;19;20421;-63
2023/05/23 09:59:10;;;;;;;4.95;0.60;;;;;;;16.25;54.49;102265.72;7352613;19;20010;-63
2023/05/23 10:01:40;;;;;;;4.53;0.50;;;;;;;16.33;54.82;102259.59;7356818;19;20018;-63
2023/05/23 10:04:09;;;;;;;7.47;0.70;;;;;;;16.39;54.38;102262.50;7356477;19;20033;-62
2023/05/23 10:06:43;;;;;;;6.43;0.70;;;;;;;16.42;54.55;102266.63;7354707;19;20010;-62
2023/05/23 10:09:16;;;;;;;6.25;0.60;;;;;;;16.46;54.83;102262.69;7318645;19;20007;-63
2023/05/23 10:11:50;;;;;;;5.82;0.68;;;;;;;16.56;53.92;102269.56;7353373;19;20022;-62
2023/05/23 10:14:17;;;;;;;8.38;0.60;;;;;;;16.56;53.42;102266.06;7358588;19;21270;-63
2023/05/23 10:16:50;;;;;;;5.28;0.90;;;;;;;16.64;53.63;102266.16;7355647;19;20014;-62
2023/05/23 10:19:20;;;;;;;5.78;0.52;;;;;;;16.70;53.49;102270.03;7355199;19;20014;-63
2023/05/23 10:21:54;;;;;;;5.00;0.60;;;;;;;16.75;53.78;102255.28;7358961;19;20483;-63
2023/05/23 10:24:23;;;;;;;6.88;0.70;;;;;;;16.88;54.47;102253.00;7359269;19;20016;-63
2023/05/23 10:26:52;;;;;;;3.88;0.90;;;;;;;17.12;52.41;102259.44;7352634;19;20019;-63
2023/05/23 10:29:21;;;;;;;5.55;0.60;;;;;;;17.13;51.48;102253.94;7354517;19;20129;-62
2023/05/23 10:31:51;;;;;;;5.93;0.60;;;;;;;17.09;51.61;102249.94;7355816;19;20018;-61
2023/05/23 10:34:23;;;;;;;9.63;0.70;;;;;;;17.08;51.84;102245.59;7355960;19;20146;-63
2023/05/23 10:36:54;;;;;;;6.45;0.60;;;;;;;17.23;50.84;102243.16;7356070;19;20018;-63
2023/05/23 10:39:27;;;;;;;5.63;0.47;;;;;;;17.31;51.23;102240.56;7356215;19;20010;-63
2023/05/23 10:42:00;;;;;;;3.72;0.45;;;;;;;17.37;50.44;102243.38;7357817;19;20015;-63
2023/05/23 10:44:30;;;;;;;9.30;0.60;;;;;;;17.44;49.87;102251.56;7357678;19;20776;-62
2023/05/23 10:47:01;;;;;;;8.57;1.00;;;;;;;17.48;48.45;102256.38;7348201;19;20351;-61
2023/05/23 10:49:40;;;;;;;3.58;0.52;;;;;;;17.47;48.80;102252.06;7351450;19;20022;-63
2023/05/23 10:52:10;;;;;;;5.90;0.60;;;;;;;17.47;49.63;102252.06;7354324;19;20137;-63
2023/05/23 10:54:42;;;;;;;4.18;0.60;;;;;;;17.48;49.45;102253.72;7356364;19;20014;-62
2023/05/23 10:57:11;;;;;;;4.05;0.57;;;;;;;17.47;49.66;102260.03;7350917;19;20022;-63
2023/05/23 10:59:39;;;;;;;4.90;0.73;;;;;;;17.54;49.89;102255.75;7349666;19;20015;-64
2023/05/23 11:02:13;;;;;;;7.05;0.60;;;;;;;17.60;49.67;102267.59;7354159;19;20011;-64
2023/05/23 11:04:44;;;;;;;5.53;0.70;;;;;;;17.60;49.67;102258.78;7353574;19;20022;-64
2023/05/23 11:07:23;;;;;;;8.10;0.77;;;;;;;17.63;49.86;102259.28;7353880;19;20019;-63
2023/05/23 11:09:56;;;;;;;5.05;0.60;;;;;;;17.60;49.96;102256.13;7354876;19;20017;-62
2023/05/23 11:12:35;;;;;;;6.15;0.60;;;;;;;17.63;50.31;102253.13;7358412;19;20046;-63
2023/05/23 11:17:52;;;;;;;7.68;0.70;;;;;;;17.80;49.84;102253.00;7350707;19;20063;-64
2023/05/23 11:20:24;;;;;;;5.60;0.77;;;;;;;17.78;50.00;102262.13;7347797;19;20037;-63
2023/05/23 11:22:54;;;;;;;8.50;0.70;;;;;;;17.82;50.52;102259.00;7338827;19;20034;-63
2023/05/23 11:25:40;;;;;;;9.18;0.65;;;;;;;17.86;51.43;102260.31;7348931;19;20007;-63
2023/05/23 11:28:09;;;;;;;8.95;0.73;;;;;;;17.93;51.26;102256.00;7351250;19;20017;-64
2023/05/23 11:30:38;;;;;;;4.38;0.55;;;;;;;18.00;50.75;102264.16;7351914;19;20021;-64
2023/05/23 11:33:12;;;;;;;6.45;0.70;;;;;;;18.07;50.21;102264.34;7354430;19;20022;-63